This is the latest recevied weather packets stored in our database for station/object IR1ZYZ-3. If no packets are shown the sender has not sent any weather packets the latest 10 day(s).
| Time | Temp. | Humidity | Pressure | Rain* | Wind** | Luminosity | Snow |
|---|---|---|---|---|---|---|---|
| 1787673551 | 30.56° C | 68% | 1011.7 hPa | - | - | - | - |
| 1787672946 | 30.56° C | 71% | 1011.8 hPa | - | - | - | - |
| 1787672341 | 32.22° C | 61% | 1011.6 hPa | - | - | - | - |
| 1787671736 | 29.44° C | 77% | 1012 hPa | - | - | - | - |
| 1787671131 | 31.11° C | 71% | 1011.7 hPa | - | - | - | - |
| 1787670525 | 30° C | 69% | 1011.7 hPa | - | - | - | - |
| 1787669920 | 31.11° C | 71% | 1011.7 hPa | - | - | - | - |
| 1787669321 | 30° C | 75% | 1011.7 hPa | - | - | - | - |
| 1787668710 | 30.56° C | 73% | 1011.7 hPa | - | - | - | - |
| 1787668105 | 32.22° C | 63% | 1011.5 hPa | - | - | - | - |
| 1787667505 | 34.44° C | 49% | 1011.2 hPa | - | - | - | - |
| 1787666895 | 30.56° C | 62% | 1011.5 hPa | - | - | - | - |
| 1787666289 | 35° C | 51% | 1011 hPa | - | - | - | - |
| 1787665684 | 33.33° C | 49% | 1011.2 hPa | - | - | - | - |
| 1787665080 | 34.44° C | 48% | 1011 hPa | - | - | - | - |
| 1787664475 | 33.89° C | 46% | 1011.1 hPa | - | - | - | - |
| 1787663869 | 35.56° C | 44% | 1010.8 hPa | - | - | - | - |
| 1787663869 | 35.56° C | 44% | 1010.8 hPa | - | - | - | - |
| 1787663265 | 34.44° C | 42% | 1010.8 hPa | - | - | - | - |
| 1787662660 | 35.56° C | 42% | 1010.8 hPa | - | - | - | - |
| 1787662055 | 35.56° C | 42% | 1010.7 hPa | - | - | - | - |
| 1787661449 | 34.44° C | 43% | 1010.6 hPa | - | - | - | - |
| 1787660844 | 33.33° C | 45% | 1010.8 hPa | - | - | - | - |
| 1787660239 | 34.44° C | 42% | 1010.6 hPa | - | - | - | - |
| 1787659632 | 34.44° C | 42% | 1010.6 hPa | - | - | - | - |
* Rain since midnight (hover to see other rain measurements)
** Current wind speed in m/s (hover to see current wind gust speed)